createdAt,value
2023-04-16T00:00:48.563Z,88.88
2023-04-16T00:03:35.445Z,92.49
2023-04-16T00:06:08.530Z,89.00
2023-04-16T00:08:37.303Z,93.25
2023-04-16T00:11:07.767Z,98.18
2023-04-16T00:13:36.809Z,98.96
2023-04-16T00:16:05.583Z,100.00
2023-04-16T00:18:32.886Z,99.48
2023-04-16T00:21:04.750Z,91.28
2023-04-16T00:23:51.569Z,97.77
2023-04-16T00:26:19.119Z,100.00
2023-04-16T00:28:48.375Z,100.00
2023-04-16T00:31:16.224Z,100.00
2023-04-16T00:33:43.625Z,100.00
2023-04-16T00:36:12.681Z,100.00
2023-04-16T00:38:40.604Z,100.00
2023-04-16T00:41:08.541Z,100.00
2023-04-16T00:43:38.262Z,100.00
2023-04-16T00:46:09.166Z,100.00
2023-04-16T00:48:38.742Z,100.00
2023-04-16T00:51:08.406Z,100.00
2023-04-16T00:53:36.094Z,100.00
2023-04-16T00:56:05.790Z,100.00
2023-04-16T00:58:35.235Z,100.00
2023-04-16T01:01:04.605Z,100.00
2023-04-16T01:03:47.801Z,100.00
2023-04-16T01:06:17.841Z,100.00
2023-04-16T01:08:45.649Z,100.00
2023-04-16T01:11:15.223Z,100.00
2023-04-16T01:13:42.779Z,100.00
2023-04-16T01:16:12.528Z,100.00
2023-04-16T01:18:40.135Z,100.00
2023-04-16T01:21:07.861Z,100.00
2023-04-16T01:23:39.406Z,100.00
2023-04-16T01:26:10.165Z,100.00
2023-04-16T01:28:38.576Z,100.00
2023-04-16T01:31:06.336Z,100.00
2023-04-16T01:33:44.867Z,100.00
2023-04-16T01:36:13.284Z,100.00
2023-04-16T01:38:40.563Z,100.00
2023-04-16T01:41:08.195Z,100.00
2023-04-16T01:43:38.422Z,100.00
2023-04-16T01:46:16.490Z,100.00
2023-04-16T01:48:44.009Z,100.00
2023-04-16T01:51:11.756Z,100.00
2023-04-16T01:53:39.274Z,100.00
2023-04-16T01:56:07.201Z,100.00
2023-04-16T01:58:35.735Z,100.00
2023-04-16T02:01:04.624Z,100.00
2023-04-16T02:03:33.029Z,100.00
2023-04-16T02:06:01.416Z,100.00
2023-04-16T02:08:29.637Z,100.00
2023-04-16T02:10:57.752Z,100.00
2023-04-16T02:13:26.316Z,100.00
2023-04-16T02:15:54.238Z,100.00
2023-04-16T02:18:32.691Z,100.00
2023-04-16T02:21:00.689Z,100.00
2023-04-16T02:23:29.129Z,100.00
2023-04-16T02:25:58.606Z,100.00
2023-04-16T02:28:25.972Z,100.00
2023-04-16T02:30:53.514Z,100.00
2023-04-16T02:33:21.889Z,100.00
2023-04-16T02:36:00.520Z,100.00
2023-04-16T02:38:27.870Z,100.00
2023-04-16T02:40:55.943Z,100.00
2023-04-16T02:43:23.483Z,100.00
2023-04-16T02:45:51.408Z,100.00
2023-04-16T02:48:18.703Z,100.00
2023-04-16T02:50:46.255Z,100.00
2023-04-16T02:53:13.494Z,100.00
2023-04-16T02:55:41.195Z,100.00
2023-04-16T02:58:08.607Z,100.00
2023-04-16T03:00:36.393Z,100.00
2023-04-16T03:03:03.946Z,100.00
2023-04-16T03:05:31.623Z,100.00
2023-04-16T03:07:58.837Z,100.00
2023-04-16T03:10:26.735Z,100.00
2023-04-16T03:12:55.772Z,100.00
2023-04-16T03:15:24.217Z,100.00
2023-04-16T03:17:51.481Z,100.00
2023-04-16T03:20:20.867Z,100.00
2023-04-16T03:22:48.380Z,100.00
2023-04-16T03:25:16.017Z,100.00
2023-04-16T03:27:43.309Z,100.00
2023-04-16T03:30:13.482Z,100.00
2023-04-16T03:32:42.402Z,100.00
2023-04-16T03:35:11.305Z,100.00
2023-04-16T03:37:38.747Z,100.00
2023-04-16T03:40:09.137Z,99.74
2023-04-16T03:42:36.817Z,97.84
2023-04-16T03:45:09.568Z,98.99
2023-04-16T03:47:38.181Z,97.95
2023-04-16T03:50:06.276Z,95.04
2023-04-16T03:52:34.925Z,95.16
2023-04-16T03:55:04.067Z,97.82
2023-04-16T03:57:32.208Z,100.00
2023-04-16T04:00:09.519Z,96.00
2023-04-16T04:02:55.437Z,96.32
2023-04-16T04:05:23.817Z,92.23
2023-04-16T04:07:52.552Z,92.28
2023-04-16T04:10:20.104Z,94.40
2023-04-16T04:12:47.447Z,92.36
2023-04-16T04:15:15.244Z,89.49
2023-04-16T04:17:43.207Z,88.70
2023-04-16T04:20:11.856Z,88.86
2023-04-16T04:22:39.400Z,88.63
2023-04-16T04:25:08.910Z,90.35
2023-04-16T04:27:36.396Z,93.26
2023-04-16T04:30:05.060Z,88.79
2023-04-16T04:32:33.755Z,88.05
2023-04-16T04:35:02.926Z,89.41
2023-04-16T04:37:30.189Z,87.85
2023-04-16T04:39:58.528Z,86.56
2023-04-16T04:42:25.940Z,87.47
2023-04-16T04:44:55.291Z,86.68
2023-04-16T04:47:23.824Z,88.38
2023-04-16T04:49:55.127Z,89.19
2023-04-16T04:52:22.517Z,86.70
2023-04-16T04:54:50.717Z,84.56
2023-04-16T04:57:18.002Z,83.90
2023-04-16T04:59:45.863Z,83.90
2023-04-16T05:02:14.720Z,82.99
2023-04-16T05:04:42.565Z,83.24
2023-04-16T05:07:09.929Z,83.62
2023-04-16T05:09:40.813Z,82.15
2023-04-16T05:12:09.409Z,82.42
2023-04-16T05:14:37.000Z,80.21
2023-04-16T05:17:04.663Z,80.09
2023-04-16T05:19:33.102Z,80.37
2023-04-16T05:22:00.435Z,80.07
2023-04-16T05:24:28.262Z,80.38
2023-04-16T05:26:56.860Z,80.35
2023-04-16T05:29:24.510Z,80.05
2023-04-16T05:31:54.043Z,80.70
2023-04-16T05:34:21.647Z,80.31
2023-04-16T05:36:49.160Z,81.04
2023-04-16T05:39:17.424Z,81.60
2023-04-16T05:41:45.707Z,81.19
2023-04-16T05:44:13.522Z,78.91
2023-04-16T05:46:41.273Z,78.59
2023-04-16T05:49:09.229Z,78.41
2023-04-16T05:51:36.788Z,76.68
2023-04-16T05:54:04.516Z,75.89
2023-04-16T05:56:31.821Z,76.25
2023-04-16T05:58:59.479Z,74.08
2023-04-16T06:01:26.882Z,73.23
2023-04-16T06:03:57.462Z,72.57
2023-04-16T06:06:24.931Z,71.38
2023-04-16T06:08:52.545Z,70.77
2023-04-16T06:11:19.980Z,70.43
2023-04-16T06:13:47.651Z,70.05
2023-04-16T06:16:15.082Z,70.95
2023-04-16T06:18:42.729Z,72.18
2023-04-16T06:21:10.479Z,70.88
2023-04-16T06:23:38.160Z,68.74
2023-04-16T06:26:05.836Z,68.88
2023-04-16T06:28:33.435Z,68.38
2023-04-16T06:31:01.293Z,68.86
2023-04-16T06:33:28.955Z,70.55
2023-04-16T06:35:56.733Z,72.47
2023-04-16T06:38:24.378Z,73.32
2023-04-16T06:40:52.048Z,73.75
2023-04-16T06:43:19.999Z,73.25
2023-04-16T06:45:47.305Z,71.79
2023-04-16T06:48:14.989Z,72.36
2023-04-16T06:50:42.423Z,71.33
2023-04-16T06:53:10.250Z,70.09
2023-04-16T06:55:40.118Z,67.84
2023-04-16T06:58:07.825Z,67.14
2023-04-16T07:00:35.305Z,67.01
2023-04-16T07:03:03.547Z,66.56
2023-04-16T07:05:31.837Z,67.59
2023-04-16T07:07:59.830Z,69.40
2023-04-16T07:10:27.157Z,68.35
2023-04-16T07:12:55.120Z,69.84
2023-04-16T07:15:22.461Z,69.38
2023-04-16T07:17:50.366Z,67.96
2023-04-16T07:20:18.048Z,67.75
2023-04-16T07:22:46.109Z,68.44
2023-04-16T07:25:13.507Z,61.79
2023-04-16T07:27:45.370Z,56.31
2023-04-16T07:30:12.870Z,52.75
2023-04-16T07:32:41.158Z,52.46
2023-04-16T07:35:33.927Z,50.79
2023-04-16T07:38:02.062Z,50.29
2023-04-16T07:40:31.434Z,51.32
2023-04-16T07:43:00.937Z,51.25
2023-04-16T07:45:29.799Z,51.98
2023-04-16T07:47:59.778Z,51.26
2023-04-16T07:50:28.632Z,50.88
2023-04-16T07:52:56.186Z,50.79
2023-04-16T07:55:23.753Z,49.79
2023-04-16T07:57:51.718Z,50.21
2023-04-16T08:00:19.566Z,49.48
2023-04-16T08:02:47.725Z,48.33
2023-04-16T08:05:15.658Z,48.88
2023-04-16T08:07:43.457Z,48.51
2023-04-16T08:10:11.329Z,48.04
2023-04-16T08:12:39.226Z,48.49
2023-04-16T08:15:07.525Z,49.52
2023-04-16T08:17:35.610Z,50.77
2023-04-16T08:20:06.999Z,49.65
2023-04-16T08:22:34.931Z,49.29
2023-04-16T08:25:03.034Z,48.13
2023-04-16T08:27:30.858Z,47.41
2023-04-16T08:29:58.313Z,47.96
2023-04-16T08:32:27.262Z,47.70
2023-04-16T08:34:55.436Z,46.60
2023-04-16T08:37:24.669Z,48.57
2023-04-16T08:39:52.165Z,47.47
2023-04-16T08:42:29.642Z,48.32
2023-04-16T08:45:10.025Z,47.04
2023-04-16T08:47:38.028Z,46.21
2023-04-16T08:50:06.471Z,47.48
2023-04-16T08:52:37.910Z,46.28
2023-04-16T08:55:12.231Z,45.15
2023-04-16T08:57:54.595Z,47.11
2023-04-16T09:00:22.448Z,46.29
2023-04-16T09:02:51.573Z,48.08
2023-04-16T09:05:25.596Z,48.39
2023-04-16T09:07:54.796Z,48.10
2023-04-16T09:10:23.850Z,49.08
2023-04-16T09:12:52.322Z,48.00
2023-04-16T09:15:21.543Z,47.61
2023-04-16T09:17:49.487Z,47.18
2023-04-16T09:20:17.756Z,48.96
2023-04-16T09:22:46.687Z,49.21
2023-04-16T09:25:16.395Z,47.70
2023-04-16T09:27:49.309Z,49.79
2023-04-16T09:30:24.854Z,49.84
2023-04-16T09:32:53.758Z,49.43
2023-04-16T09:35:21.655Z,50.06
2023-04-16T09:37:57.802Z,50.55
2023-04-16T09:40:27.524Z,47.43
2023-04-16T09:42:58.836Z,46.27
2023-04-16T09:45:26.664Z,45.02
2023-04-16T09:48:04.205Z,46.15
2023-04-16T09:50:31.722Z,47.07
2023-04-16T09:53:08.628Z,45.80
2023-04-16T09:55:36.224Z,44.52
2023-04-16T09:58:03.960Z,45.18
2023-04-16T10:00:31.818Z,45.02
2023-04-16T10:03:07.577Z,44.14
2023-04-16T10:05:35.645Z,44.90
2023-04-16T10:08:03.912Z,44.91
2023-04-16T10:10:32.535Z,43.06
2023-04-16T10:13:02.714Z,44.21
2023-04-16T10:15:30.713Z,45.37
2023-04-16T10:17:58.956Z,44.54
2023-04-16T10:20:26.973Z,44.68
2023-04-16T10:22:55.068Z,44.23
2023-04-16T10:25:24.268Z,44.42
2023-04-16T10:27:54.116Z,42.79
2023-04-16T10:30:22.422Z,43.60
2023-04-16T10:32:51.239Z,43.03
2023-04-16T10:35:21.815Z,42.76
2023-04-16T10:37:51.623Z,43.69
2023-04-16T10:40:27.953Z,44.14
2023-04-16T10:42:57.196Z,45.54
2023-04-16T10:45:32.823Z,46.41
2023-04-16T10:48:07.179Z,46.78
2023-04-16T10:50:36.190Z,46.48
2023-04-16T10:53:26.803Z,45.97
2023-04-16T10:56:15.684Z,45.95
2023-04-16T10:58:43.458Z,43.48
2023-04-16T11:01:17.083Z,42.54
2023-04-16T11:03:47.538Z,43.84
2023-04-16T11:06:25.179Z,45.42
2023-04-16T11:08:55.306Z,44.54
2023-04-16T11:11:23.486Z,43.63
2023-04-16T11:13:57.059Z,43.48
2023-04-16T11:16:26.199Z,42.01
2023-04-16T11:18:55.620Z,41.56
2023-04-16T11:21:24.731Z,41.28
2023-04-16T11:23:55.362Z,41.67
2023-04-16T11:26:28.040Z,43.16
2023-04-16T11:28:57.291Z,43.78
2023-04-16T11:31:28.446Z,43.64
2023-04-16T11:33:57.951Z,44.31
2023-04-16T11:36:27.456Z,40.61
2023-04-16T11:39:02.366Z,39.75
2023-04-16T11:41:29.699Z,39.11
2023-04-16T11:43:57.629Z,42.23
2023-04-16T11:46:43.611Z,43.15
2023-04-16T11:49:12.140Z,42.92
2023-04-16T11:51:41.373Z,43.89
2023-04-16T11:54:11.997Z,43.15
2023-04-16T11:56:50.588Z,41.55
2023-04-16T11:59:24.302Z,39.40
2023-04-16T12:01:58.682Z,39.18
2023-04-16T12:04:27.669Z,39.08
2023-04-16T12:07:11.521Z,37.57
2023-04-16T12:09:41.738Z,37.56
2023-04-16T12:12:31.648Z,36.45
2023-04-16T12:15:00.340Z,37.76
2023-04-16T12:17:27.659Z,37.32
2023-04-16T12:20:00.755Z,38.66
2023-04-16T12:22:40.093Z,39.19
2023-04-16T12:25:12.677Z,40.57
2023-04-16T12:27:47.401Z,40.45
2023-04-16T12:30:21.197Z,40.50
2023-04-16T12:32:50.647Z,39.41
2023-04-16T12:35:32.582Z,40.71
2023-04-16T12:38:03.628Z,40.96
2023-04-16T12:40:31.584Z,41.24
2023-04-16T12:42:59.071Z,41.24
2023-04-16T12:45:26.998Z,42.72
2023-04-16T12:47:56.919Z,41.03
2023-04-16T12:50:24.951Z,40.96
2023-04-16T12:52:52.450Z,41.11
2023-04-16T12:55:20.802Z,40.84
2023-04-16T12:57:49.136Z,41.21
2023-04-16T13:00:17.273Z,42.42
2023-04-16T13:02:45.802Z,43.16
2023-04-16T13:05:16.764Z,43.33
2023-04-16T13:07:44.112Z,42.76
2023-04-16T13:10:12.849Z,42.56
2023-04-16T13:12:41.274Z,40.25
2023-04-16T13:15:12.456Z,40.17
2023-04-16T13:17:40.009Z,42.10
2023-04-16T13:20:10.038Z,43.51
2023-04-16T13:22:37.848Z,44.89
2023-04-16T13:25:06.273Z,45.23
2023-04-16T13:27:33.615Z,45.89
2023-04-16T13:30:01.917Z,46.88
2023-04-16T13:32:29.419Z,46.73
2023-04-16T13:34:57.184Z,47.53
2023-04-16T13:37:24.591Z,48.14
2023-04-16T13:39:52.189Z,48.40
2023-04-16T13:42:19.406Z,48.48
2023-04-16T13:44:49.442Z,48.19
2023-04-16T13:47:17.435Z,47.59
2023-04-16T13:49:45.038Z,47.74
2023-04-16T13:52:12.340Z,47.83
2023-04-16T13:54:41.633Z,48.31
2023-04-16T13:57:19.989Z,49.88
2023-04-16T13:59:47.722Z,47.82
2023-04-16T14:02:15.251Z,46.79
2023-04-16T14:04:42.941Z,45.52
2023-04-16T14:07:10.453Z,45.27
2023-04-16T14:09:37.996Z,45.64
2023-04-16T14:12:05.922Z,45.75
2023-04-16T14:14:36.097Z,47.14
2023-04-16T14:17:07.610Z,47.05
2023-04-16T14:19:35.255Z,47.55
2023-04-16T14:22:02.534Z,48.68
2023-04-16T14:24:30.531Z,48.26
2023-04-16T14:26:57.939Z,47.39
2023-04-16T14:29:25.946Z,48.51
2023-04-16T14:31:54.207Z,49.14
2023-04-16T14:34:22.919Z,48.57
2023-04-16T14:36:52.050Z,48.17
2023-04-16T14:39:19.753Z,47.89
2023-04-16T14:41:47.004Z,47.88
2023-04-16T14:44:16.614Z,48.02
2023-04-16T14:46:43.963Z,48.14
2023-04-16T14:49:12.558Z,48.35
2023-04-16T14:51:40.929Z,48.43
2023-04-16T14:54:09.738Z,48.84
2023-04-16T14:56:37.109Z,49.15
2023-04-16T14:59:04.706Z,50.34
2023-04-16T15:01:33.680Z,51.03
2023-04-16T15:04:02.980Z,50.72
2023-04-16T15:06:30.488Z,51.44
2023-04-16T15:08:59.879Z,50.24
2023-04-16T15:11:27.215Z,49.52
2023-04-16T15:13:54.801Z,50.07
2023-04-16T15:16:22.219Z,49.32
2023-04-16T15:18:50.902Z,49.50
2023-04-16T15:21:18.458Z,48.50
2023-04-16T15:23:46.326Z,48.62
2023-04-16T15:26:14.054Z,48.30
2023-04-16T15:28:43.410Z,48.56
2023-04-16T15:31:12.014Z,48.48
2023-04-16T15:33:39.756Z,49.09
2023-04-16T15:36:11.605Z,48.26
2023-04-16T15:38:40.943Z,47.80
2023-04-16T15:41:10.940Z,48.49
2023-04-16T15:43:40.689Z,48.55
2023-04-16T15:46:10.127Z,49.49
2023-04-16T15:48:38.005Z,49.16
2023-04-16T15:51:05.829Z,49.58
2023-04-16T15:53:34.799Z,50.13
2023-04-16T15:56:05.122Z,50.02
2023-04-16T15:58:32.724Z,49.67
2023-04-16T16:01:01.856Z,49.58
2023-04-16T16:03:30.063Z,49.41
2023-04-16T16:05:59.344Z,49.61
2023-04-16T16:08:27.534Z,49.39
2023-04-16T16:10:57.376Z,50.09
2023-04-16T16:13:27.030Z,49.74
2023-04-16T16:15:55.005Z,49.69
2023-04-16T16:18:23.658Z,49.65
2023-04-16T16:20:56.168Z,50.20
2023-04-16T16:23:25.485Z,50.80
2023-04-16T16:25:52.795Z,51.11
2023-04-16T16:28:21.438Z,51.64
2023-04-16T16:30:51.340Z,52.36
2023-04-16T16:33:19.226Z,53.55
2023-04-16T16:35:46.594Z,53.92
2023-04-16T16:38:14.217Z,54.88
2023-04-16T16:40:41.547Z,55.42
2023-04-16T16:43:09.531Z,55.39
2023-04-16T16:45:37.126Z,55.92
2023-04-16T16:48:05.123Z,55.83
2023-04-16T16:50:33.004Z,56.41
2023-04-16T16:53:00.807Z,56.77
2023-04-16T16:55:28.227Z,57.50
2023-04-16T16:57:56.201Z,57.73
2023-04-16T17:00:23.763Z,57.93
2023-04-16T17:02:52.222Z,58.82
2023-04-16T17:05:20.045Z,58.40
2023-04-16T17:07:47.708Z,59.17
2023-04-16T17:10:20.406Z,58.69
2023-04-16T17:12:49.081Z,59.41
2023-04-16T17:15:18.588Z,59.67
2023-04-16T17:17:48.397Z,60.39
2023-04-16T17:20:16.143Z,60.86
2023-04-16T17:22:44.262Z,61.22
2023-04-16T17:25:12.596Z,60.29
2023-04-16T17:27:40.699Z,61.02
2023-04-16T17:30:08.802Z,61.21
2023-04-16T17:32:37.550Z,61.78
2023-04-16T17:35:07.013Z,61.70
2023-04-16T17:37:35.353Z,62.22
2023-04-16T17:40:07.774Z,62.32
2023-04-16T17:42:37.956Z,62.99
2023-04-16T17:45:05.798Z,63.04
2023-04-16T17:47:36.763Z,64.23
2023-04-16T17:50:05.201Z,64.12
2023-04-16T17:52:32.970Z,63.83
2023-04-16T17:55:07.926Z,64.31
2023-04-16T17:57:37.785Z,65.11
2023-04-16T18:00:11.533Z,65.74
2023-04-16T18:02:41.169Z,65.97
2023-04-16T18:05:09.491Z,66.26
2023-04-16T18:07:40.009Z,66.63
2023-04-16T18:10:08.301Z,66.11
2023-04-16T18:12:39.026Z,66.69
2023-04-16T18:15:07.369Z,66.80
2023-04-16T18:17:35.438Z,66.85
2023-04-16T18:20:07.199Z,65.52
2023-04-16T18:22:35.055Z,65.51
2023-04-16T18:25:02.372Z,65.78
2023-04-16T18:27:31.085Z,66.34
2023-04-16T18:29:58.454Z,67.14
2023-04-16T18:32:30.868Z,67.94
2023-04-16T18:34:58.666Z,68.64
2023-04-16T18:37:31.945Z,68.52
2023-04-16T18:40:06.337Z,69.03
2023-04-16T18:42:37.965Z,69.40
2023-04-16T18:45:12.513Z,69.78
2023-04-16T18:47:42.469Z,69.66
2023-04-16T18:50:10.034Z,70.87
2023-04-16T18:52:38.928Z,70.90
2023-04-16T18:55:07.040Z,71.41
2023-04-16T18:57:36.091Z,72.14
2023-04-16T19:00:11.360Z,73.01
2023-04-16T19:02:40.722Z,72.25
2023-04-16T19:05:09.934Z,72.14
2023-04-16T19:07:38.828Z,73.03
2023-04-16T19:10:06.898Z,72.08
2023-04-16T19:12:34.545Z,72.15
2023-04-16T19:15:02.915Z,73.04
2023-04-16T19:17:32.059Z,73.85
2023-04-16T19:19:59.924Z,74.52
2023-04-16T19:22:33.398Z,74.33
2023-04-16T19:25:24.663Z,74.58
2023-04-16T19:27:56.168Z,74.21
2023-04-16T19:30:23.627Z,75.53
2023-04-16T19:32:52.653Z,76.05
2023-04-16T19:35:21.561Z,76.96
2023-04-16T19:37:49.669Z,76.91
2023-04-16T19:40:17.297Z,77.95
2023-04-16T19:42:49.654Z,77.36
2023-04-16T19:45:18.458Z,79.16
2023-04-16T19:47:48.866Z,78.44
2023-04-16T19:50:16.966Z,78.88
2023-04-16T19:52:45.318Z,79.78
2023-04-16T19:55:14.062Z,78.60
2023-04-16T19:57:41.772Z,78.34
2023-04-16T20:00:12.065Z,78.52
2023-04-16T20:02:41.302Z,79.64
2023-04-16T20:05:11.215Z,80.80
2023-04-16T20:07:38.809Z,80.67
2023-04-16T20:10:07.771Z,79.22
2023-04-16T20:12:36.236Z,80.03
2023-04-16T20:15:08.605Z,81.41
2023-04-16T20:17:37.393Z,78.94
2023-04-16T20:20:10.309Z,79.07
2023-04-16T20:22:39.052Z,81.56
2023-04-16T20:25:07.701Z,81.93
2023-04-16T20:27:35.923Z,83.18
2023-04-16T20:30:05.779Z,81.12
2023-04-16T20:32:33.665Z,81.79
2023-04-16T20:35:05.262Z,84.33
2023-04-16T20:37:38.206Z,85.82
2023-04-16T20:40:10.367Z,86.30
2023-04-16T20:42:38.171Z,86.16
2023-04-16T20:45:06.188Z,85.62
2023-04-16T20:47:35.080Z,85.14
2023-04-16T20:50:06.040Z,87.16
2023-04-16T20:52:34.356Z,88.64
2023-04-16T20:55:01.686Z,88.42
2023-04-16T20:57:29.882Z,87.90
2023-04-16T20:59:57.918Z,85.81
2023-04-16T21:02:28.371Z,85.30
2023-04-16T21:04:56.612Z,87.43
2023-04-16T21:07:25.606Z,89.27
2023-04-16T21:09:54.440Z,88.23
2023-04-16T21:12:22.047Z,86.86
2023-04-16T21:14:49.330Z,87.23
2023-04-16T21:17:16.898Z,88.63
2023-04-16T21:19:44.201Z,89.90
2023-04-16T21:22:12.778Z,90.77
2023-04-16T21:24:40.179Z,90.66
2023-04-16T21:27:09.833Z,92.53
2023-04-16T21:29:37.092Z,94.02
2023-04-16T21:32:05.003Z,94.21
2023-04-16T21:34:32.245Z,94.00
2023-04-16T21:36:59.882Z,94.27
2023-04-16T21:39:31.084Z,94.04
2023-04-16T21:41:58.743Z,94.56
2023-04-16T21:44:26.271Z,92.76
2023-04-16T21:46:53.923Z,91.00
2023-04-16T21:49:21.275Z,90.98
2023-04-16T21:51:50.352Z,91.01
2023-04-16T21:54:18.827Z,88.85
2023-04-16T21:56:47.567Z,93.50
2023-04-16T21:59:14.929Z,95.09
2023-04-16T22:01:42.883Z,93.26
2023-04-16T22:04:13.480Z,92.23
2023-04-16T22:06:46.355Z,93.92
2023-04-16T22:09:13.700Z,94.91
2023-04-16T22:11:49.859Z,97.50
2023-04-16T22:14:26.525Z,98.73
2023-04-16T22:16:56.625Z,98.57
2023-04-16T22:19:27.484Z,93.82
2023-04-16T22:21:57.095Z,88.90
2023-04-16T22:24:25.903Z,88.86
2023-04-16T22:26:56.141Z,94.55
2023-04-16T22:29:26.024Z,93.44
2023-04-16T22:31:55.555Z,93.11
2023-04-16T22:34:22.960Z,92.58
2023-04-16T22:36:56.479Z,93.76
2023-04-16T22:39:26.440Z,96.30
2023-04-16T22:41:56.563Z,94.85
2023-04-16T22:44:31.020Z,95.54
2023-04-16T22:47:01.952Z,98.16
2023-04-16T22:49:36.435Z,95.62
2023-04-16T22:52:07.539Z,94.93
2023-04-16T22:54:38.884Z,93.84
2023-04-16T22:57:23.306Z,96.38
2023-04-16T22:59:54.988Z,99.58
2023-04-16T23:02:24.891Z,98.85
2023-04-16T23:04:53.324Z,99.60
2023-04-16T23:07:23.721Z,98.52
2023-04-16T23:09:51.909Z,96.91
2023-04-16T23:12:23.721Z,98.45
2023-04-16T23:14:55.273Z,100.00
2023-04-16T23:17:30.858Z,97.52
2023-04-16T23:19:59.915Z,95.92
2023-04-16T23:22:28.537Z,94.09
2023-04-16T23:24:55.989Z,95.30
2023-04-16T23:27:26.593Z,95.73
2023-04-16T23:29:53.888Z,97.13
2023-04-16T23:32:22.391Z,96.72
2023-04-16T23:34:52.100Z,93.06
2023-04-16T23:37:26.030Z,95.20
2023-04-16T23:39:57.094Z,93.86
2023-04-16T23:42:27.316Z,94.97
2023-04-16T23:44:55.099Z,98.48
2023-04-16T23:47:26.957Z,100.00
2023-04-16T23:49:58.784Z,100.00
2023-04-16T23:52:28.456Z,100.00
2023-04-16T23:54:58.770Z,100.00
2023-04-16T23:57:27.011Z,100.00
2023-04-16T23:59:56.509Z,100.00
